Weather at Clare Station Airport

Public forecast

Using degrees Celsius for public forecast. Weather courtesy of forecast.io.

Closest aviation weather report (METAR) to Clare Station Airport

Closest report is Mildura Airport, 104.8 nm (194.1 km) WSW. Retrieved 2021/06/23 01:00 UTC (59 minutes ago):

YMIA 230100Z AUTO 03012KT 9999 // SCT046 SCT073 BKN093 13/11 Q1016

Closest aviation forecast (TAF) to Clare Station Airport

Forecast is more than 12 hours old.

Closest forecast is Wagga Wagga City Airport, 204.3 nm (378.3 km) ESE. Retrieved 2018/05/25 18:03 UTC (3 years ago):

TAF YSWG 251649Z 2518/2608 07008KT CAVOK